sensor_id;sensor_type;location;lat;lon;timestamp;pressure;altitude;pressure_sealevel;temperature;humidity
69842;BME280;57138;51.326;-0.068;2022-12-28T00:03:32;99273.00;;;8.18;100.00
69842;BME280;57138;51.326;-0.068;2022-12-28T00:05:57;99277.28;;;8.19;100.00
69842;BME280;57138;51.326;-0.068;2022-12-28T00:08:22;99273.38;;;8.15;100.00
69842;BME280;57138;51.326;-0.068;2022-12-28T00:10:48;99251.28;;;8.21;100.00
69842;BME280;57138;51.326;-0.068;2022-12-28T00:13:13;99259.50;;;8.26;100.00
69842;BME280;57138;51.326;-0.068;2022-12-28T00:15:39;99253.38;;;8.26;100.00
69842;BME280;57138;51.326;-0.068;2022-12-28T00:18:04;99250.50;;;8.27;100.00
69842;BME280;57138;51.326;-0.068;2022-12-28T00:20:30;99238.97;;;8.20;100.00
69842;BME280;57138;51.326;-0.068;2022-12-28T00:22:55;99259.53;;;8.33;100.00
69842;BME280;57138;51.326;-0.068;2022-12-28T00:25:20;99252.97;;;8.29;100.00
69842;BME280;57138;51.326;-0.068;2022-12-28T00:27:46;99236.19;;;8.35;100.00
69842;BME280;57138;51.326;-0.068;2022-12-28T00:30:11;99233.34;;;8.37;100.00
69842;BME280;57138;51.326;-0.068;2022-12-28T00:32:37;99234.97;;;8.38;100.00
69842;BME280;57138;51.326;-0.068;2022-12-28T00:35:02;99241.94;;;8.39;100.00
69842;BME280;57138;51.326;-0.068;2022-12-28T00:37:28;99234.56;;;8.41;100.00
69842;BME280;57138;51.326;-0.068;2022-12-28T00:39:53;99233.38;;;8.43;100.00
69842;BME280;57138;51.326;-0.068;2022-12-28T00:42:19;99223.91;;;8.41;100.00
69842;BME280;57138;51.326;-0.068;2022-12-28T00:44:44;99226.81;;;8.46;100.00
69842;BME280;57138;51.326;-0.068;2022-12-28T00:47:10;99219.88;;;8.45;100.00
69842;BME280;57138;51.326;-0.068;2022-12-28T00:49:35;99220.09;;;8.50;100.00
69842;BME280;57138;51.326;-0.068;2022-12-28T00:52:00;99226.03;;;8.52;100.00
69842;BME280;57138;51.326;-0.068;2022-12-28T00:54:26;99218.69;;;8.54;100.00
69842;BME280;57138;51.326;-0.068;2022-12-28T00:56:51;99229.34;;;8.54;100.00
69842;BME280;57138;51.326;-0.068;2022-12-28T00:59:17;99242.25;;;8.57;100.00
69842;BME280;57138;51.326;-0.068;2022-12-28T01:01:42;99242.66;;;8.61;100.00
69842;BME280;57138;51.326;-0.068;2022-12-28T01:04:07;99239.81;;;8.62;100.00
69842;BME280;57138;51.326;-0.068;2022-12-28T01:06:33;99239.19;;;8.60;100.00
69842;BME280;57138;51.326;-0.068;2022-12-28T01:08:58;99241.69;;;8.69;100.00
69842;BME280;57138;51.326;-0.068;2022-12-28T01:11:26;99243.31;;;8.70;100.00
69842;BME280;57138;51.326;-0.068;2022-12-28T01:13:53;99244.94;;;8.71;100.00
69842;BME280;57138;51.326;-0.068;2022-12-28T01:16:22;99235.53;;;8.75;100.00
69842;BME280;57138;51.326;-0.068;2022-12-28T01:18:51;99231.88;;;8.76;100.00
69842;BME280;57138;51.326;-0.068;2022-12-28T01:21:19;99235.94;;;8.78;100.00
69842;BME280;57138;51.326;-0.068;2022-12-28T01:23:46;99226.94;;;8.79;100.00
69842;BME280;57138;51.326;-0.068;2022-12-28T01:26:12;99238.84;;;8.84;100.00
69842;BME280;57138;51.326;-0.068;2022-12-28T01:28:38;99229.81;;;8.85;100.00
69842;BME280;57138;51.326;-0.068;2022-12-28T01:31:09;99238.25;;;8.88;100.00
69842;BME280;57138;51.326;-0.068;2022-12-28T01:33:35;99237.00;;;8.91;100.00
69842;BME280;57138;51.326;-0.068;2022-12-28T01:36:05;99233.13;;;8.93;100.00
69842;BME280;57138;51.326;-0.068;2022-12-28T01:38:31;99222.47;;;8.93;100.00
69842;BME280;57138;51.326;-0.068;2022-12-28T01:40:56;99226.56;;;8.96;100.00
69842;BME280;57138;51.326;-0.068;2022-12-28T01:43:46;99219.19;;;8.98;100.00
69842;BME280;57138;51.326;-0.068;2022-12-28T01:51:18;99206.47;;;9.00;100.00
69842;BME280;57138;51.326;-0.068;2022-12-28T01:53:45;99209.53;;;9.04;100.00
69842;BME280;57138;51.326;-0.068;2022-12-28T01:56:11;99211.81;;;9.07;100.00
69842;BME280;57138;51.326;-0.068;2022-12-28T01:58:36;99206.47;;;9.07;100.00
69842;BME280;57138;51.326;-0.068;2022-12-28T02:01:03;99204.84;;;9.06;100.00
69842;BME280;57138;51.326;-0.068;2022-12-28T02:03:31;99217.38;;;9.12;100.00
69842;BME280;57138;51.326;-0.068;2022-12-28T02:05:59;99214.69;;;9.12;100.00
69842;BME280;57138;51.326;-0.068;2022-12-28T02:11:19;99218.59;;;9.16;100.00
69842;BME280;57138;51.326;-0.068;2022-12-28T02:13:47;99214.09;;;9.16;100.00
69842;BME280;57138;51.326;-0.068;2022-12-28T02:16:13;99209.97;;;9.14;100.00
69842;BME280;57138;51.326;-0.068;2022-12-28T02:18:41;99208.56;;;9.18;100.00
69842;BME280;57138;51.326;-0.068;2022-12-28T02:37:38;99205.69;;;9.26;100.00
69842;BME280;57138;51.326;-0.068;2022-12-28T02:42:38;99192.94;;;9.28;100.00
69842;BME280;57138;51.326;-0.068;2022-12-28T02:45:05;99185.78;;;9.29;100.00
69842;BME280;57138;51.326;-0.068;2022-12-28T02:47:50;99194.19;;;9.32;100.00
69842;BME280;57138;51.326;-0.068;2022-12-28T02:50:55;99177.38;;;9.32;100.00
69842;BME280;57138;51.326;-0.068;2022-12-28T02:53:48;99169.16;;;9.33;100.00
69842;BME280;57138;51.326;-0.068;2022-12-28T02:56:31;99183.91;;;9.36;100.00
69842;BME280;57138;51.326;-0.068;2022-12-28T03:07:09;99160.75;;;9.37;100.00
69842;BME280;57138;51.326;-0.068;2022-12-28T03:10:25;99156.03;;;9.39;100.00
69842;BME280;57138;51.326;-0.068;2022-12-28T03:15:29;99155.00;;;9.40;100.00
69842;BME280;57138;51.326;-0.068;2022-12-28T03:18:19;99153.16;;;9.40;100.00
69842;BME280;57138;51.326;-0.068;2022-12-28T03:21:06;99153.34;;;9.39;100.00
69842;BME280;57138;51.326;-0.068;2022-12-28T03:23:53;99146.16;;;9.39;100.00
69842;BME280;57138;51.326;-0.068;2022-12-28T03:26:41;99144.94;;;9.42;100.00
69842;BME280;57138;51.326;-0.068;2022-12-28T03:29:27;99144.94;;;9.42;100.00
69842;BME280;57138;51.326;-0.068;2022-12-28T03:32:13;99140.19;;;9.44;100.00
69842;BME280;57138;51.326;-0.068;2022-12-28T03:34:39;99132.19;;;9.44;100.00
69842;BME280;57138;51.326;-0.068;2022-12-28T03:37:13;99133.03;;;9.44;100.00
69842;BME280;57138;51.326;-0.068;2022-12-28T03:39:49;99130.56;;;9.43;100.00
69842;BME280;57138;51.326;-0.068;2022-12-28T03:42:26;99127.28;;;9.47;100.00
69842;BME280;57138;51.326;-0.068;2022-12-28T03:45:23;99122.75;;;9.48;100.00
69842;BME280;57138;51.326;-0.068;2022-12-28T03:47:53;99135.28;;;9.47;100.00
69842;BME280;57138;51.326;-0.068;2022-12-28T03:50:19;99121.09;;;9.47;100.00
69842;BME280;57138;51.326;-0.068;2022-12-28T03:52:45;99117.84;;;9.45;100.00
69842;BME280;57138;51.326;-0.068;2022-12-28T03:55:13;99136.91;;;9.48;100.00
69842;BME280;57138;51.326;-0.068;2022-12-28T03:57:39;99121.72;;;9.49;100.00
69842;BME280;57138;51.326;-0.068;2022-12-28T04:00:05;99117.44;;;9.48;100.00
69842;BME280;57138;51.326;-0.068;2022-12-28T04:02:31;99117.44;;;9.48;100.00
69842;BME280;57138;51.326;-0.068;2022-12-28T04:04:56;99114.16;;;9.46;100.00
69842;BME280;57138;51.326;-0.068;2022-12-28T04:07:22;99105.69;;;9.49;100.00
69842;BME280;57138;51.326;-0.068;2022-12-28T04:09:47;99107.56;;;9.48;100.00
69842;BME280;57138;51.326;-0.068;2022-12-28T04:12:12;99101.84;;;9.45;100.00
69842;BME280;57138;51.326;-0.068;2022-12-28T04:14:39;99101.41;;;9.48;100.00
69842;BME280;57138;51.326;-0.068;2022-12-28T04:17:04;99102.84;;;9.44;100.00
69842;BME280;57138;51.326;-0.068;2022-12-28T04:19:30;99100.59;;;9.41;100.00
69842;BME280;57138;51.326;-0.068;2022-12-28T04:21:55;99095.25;;;9.41;100.00
69842;BME280;57138;51.326;-0.068;2022-12-28T04:24:20;99095.69;;;9.44;100.00
69842;BME280;57138;51.326;-0.068;2022-12-28T04:26:46;99096.50;;;9.45;100.00
69842;BME280;57138;51.326;-0.068;2022-12-28T04:29:11;99077.63;;;9.40;100.00
69842;BME280;57138;51.326;-0.068;2022-12-28T04:31:37;99083.16;;;9.45;100.00
69842;BME280;57138;51.326;-0.068;2022-12-28T04:34:02;99088.50;;;9.45;100.00
69842;BME280;57138;51.326;-0.068;2022-12-28T04:36:27;99078.03;;;9.43;100.00
69842;BME280;57138;51.326;-0.068;2022-12-28T04:38:53;99080.50;;;9.45;100.00
69842;BME280;57138;51.326;-0.068;2022-12-28T04:41:18;99068.38;;;9.42;100.00
69842;BME280;57138;51.326;-0.068;2022-12-28T04:43:44;99080.50;;;9.45;100.00
69842;BME280;57138;51.326;-0.068;2022-12-28T04:46:12;99062.47;;;9.33;100.00
69842;BME280;57138;51.326;-0.068;2022-12-28T04:48:37;99078.03;;;9.43;100.00
69842;BME280;57138;51.326;-0.068;2022-12-28T04:51:09;99061.63;;;9.40;100.00
69842;BME280;57138;51.326;-0.068;2022-12-28T04:53:38;99068.59;;;9.41;100.00
69842;BME280;57138;51.326;-0.068;2022-12-28T04:56:05;99074.75;;;9.41;100.00
69842;BME280;57138;51.326;-0.068;2022-12-28T04:58:31;99069.22;;;9.43;100.00
69842;BME280;57138;51.326;-0.068;2022-12-28T05:01:04;99065.09;;;9.40;100.00
69842;BME280;57138;51.326;-0.068;2022-12-28T05:03:30;99055.06;;;9.35;100.00
69842;BME280;57138;51.326;-0.068;2022-12-28T05:06:03;99055.25;;;9.41;100.00
69842;BME280;57138;51.326;-0.068;2022-12-28T05:08:33;99055.88;;;9.36;100.00
69842;BME280;57138;51.326;-0.068;2022-12-28T05:11:00;99049.31;;;9.39;100.00
69842;BME280;57138;51.326;-0.068;2022-12-28T05:13:26;99030.44;;;9.33;100.00
69842;BME280;57138;51.326;-0.068;2022-12-28T05:15:51;99045.00;;;9.38;100.00
69842;BME280;57138;51.326;-0.068;2022-12-28T05:18:17;99030.03;;;9.37;100.00
69842;BME280;57138;51.326;-0.068;2022-12-28T05:20:42;99037.63;;;9.33;100.00
69842;BME280;57138;51.326;-0.068;2022-12-28T05:23:08;99017.13;;;9.27;100.00
69842;BME280;57138;51.326;-0.068;2022-12-28T05:25:33;99013.44;;;9.28;100.00
69842;BME280;57138;51.326;-0.068;2022-12-28T05:27:58;99022.25;;;9.28;100.00
69842;BME280;57138;51.326;-0.068;2022-12-28T05:30:24;99016.47;;;9.31;100.00
69842;BME280;57138;51.326;-0.068;2022-12-28T05:32:49;99011.34;;;9.30;100.00
69842;BME280;57138;51.326;-0.068;2022-12-28T05:35:14;99016.47;;;9.31;100.00
69842;BME280;57138;51.326;-0.068;2022-12-28T05:37:40;99018.56;;;9.29;100.00
69842;BME280;57138;51.326;-0.068;2022-12-28T05:40:05;99025.53;;;9.30;100.00
69842;BME280;57138;51.326;-0.068;2022-12-28T05:42:31;99016.91;;;9.28;100.00
69842;BME280;57138;51.326;-0.068;2022-12-28T05:44:56;99024.31;;;9.26;100.00
69842;BME280;57138;51.326;-0.068;2022-12-28T05:47:22;99021.25;;;9.23;100.00
69842;BME280;57138;51.326;-0.068;2022-12-28T05:49:47;99014.88;;;9.24;100.00
69842;BME280;57138;51.326;-0.068;2022-12-28T05:52:12;99005.03;;;9.24;100.00
69842;BME280;57138;51.326;-0.068;2022-12-28T05:54:38;99006.47;;;9.20;100.00
69842;BME280;57138;51.326;-0.068;2022-12-28T05:57:03;99001.34;;;9.18;100.00
69842;BME280;57138;51.326;-0.068;2022-12-28T05:59:29;98999.28;;;9.21;100.00
69842;BME280;57138;51.326;-0.068;2022-12-28T06:01:54;98991.09;;;9.15;100.00
69842;BME280;57138;51.326;-0.068;2022-12-28T06:04:20;98989.44;;;9.14;100.00
69842;BME280;57138;51.326;-0.068;2022-12-28T06:06:46;98991.50;;;9.19;100.00
69842;BME280;57138;51.326;-0.068;2022-12-28T06:09:12;98996.81;;;9.19;100.00
69842;BME280;57138;51.326;-0.068;2022-12-28T06:11:38;98985.75;;;9.15;100.00
69842;BME280;57138;51.326;-0.068;2022-12-28T06:14:04;98976.75;;;9.16;100.00
69842;BME280;57138;51.326;-0.068;2022-12-28T06:16:32;98978.78;;;9.14;100.00
69842;BME280;57138;51.326;-0.068;2022-12-28T06:18:58;98982.09;;;9.16;100.00
69842;BME280;57138;51.326;-0.068;2022-12-28T06:21:26;98972.22;;;9.17;100.00
69842;BME280;57138;51.326;-0.068;2022-12-28T06:23:53;98976.75;;;9.16;100.00
69842;BME280;57138;51.326;-0.068;2022-12-28T06:26:20;98963.63;;;9.15;100.00
69842;BME280;57138;51.326;-0.068;2022-12-28T06:28:46;98970.78;;;9.14;100.00
69842;BME280;57138;51.326;-0.068;2022-12-28T06:31:20;98958.28;;;9.15;100.00
69842;BME280;57138;51.326;-0.068;2022-12-28T06:33:47;98949.44;;;9.14;100.00
69842;BME280;57138;51.326;-0.068;2022-12-28T06:36:19;98956.63;;;9.14;100.00
69842;BME280;57138;51.326;-0.068;2022-12-28T06:38:45;98951.31;;;9.14;100.00
69842;BME280;57138;51.326;-0.068;2022-12-28T06:41:12;98953.59;;;9.10;100.00
69842;BME280;57138;51.326;-0.068;2022-12-28T06:43:39;98958.72;;;9.12;100.00
69842;BME280;57138;51.326;-0.068;2022-12-28T06:46:05;98938.41;;;9.11;100.00
69842;BME280;57138;51.326;-0.068;2022-12-28T06:48:32;98931.44;;;9.03;100.00
69842;BME280;57138;51.326;-0.068;2022-12-28T06:51:03;98934.91;;;9.04;100.00
69842;BME280;57138;51.326;-0.068;2022-12-28T06:53:31;98932.47;;;9.02;100.00
69842;BME280;57138;51.326;-0.068;2022-12-28T06:55:59;98945.16;;;9.07;100.00
69842;BME280;57138;51.326;-0.068;2022-12-28T06:58:26;98923.84;;;9.07;100.00
69842;BME280;57138;51.326;-0.068;2022-12-28T07:00:53;98932.88;;;9.06;100.00
69842;BME280;57138;51.326;-0.068;2022-12-28T07:03:19;98933.91;;;9.05;100.00
69842;BME280;57138;51.326;-0.068;2022-12-28T07:05:45;98919.97;;;9.03;100.00
69842;BME280;57138;51.326;-0.068;2022-12-28T07:08:11;98923.06;;;8.99;100.00
69842;BME280;57138;51.326;-0.068;2022-12-28T07:10:36;98927.16;;;8.95;100.00
69842;BME280;57138;51.326;-0.068;2022-12-28T07:13:02;98928.81;;;8.96;100.00
69842;BME280;57138;51.326;-0.068;2022-12-28T07:15:28;98912.81;;;8.96;100.00
69842;BME280;57138;51.326;-0.068;2022-12-28T07:17:53;98923.91;;;8.93;100.00
69842;BME280;57138;51.326;-0.068;2022-12-28T07:20:19;98904.84;;;8.90;100.00
69842;BME280;57138;51.326;-0.068;2022-12-28T07:22:44;98904.84;;;8.83;100.00
69842;BME280;57138;51.326;-0.068;2022-12-28T07:25:10;98897.69;;;8.77;100.00
69842;BME280;57138;51.326;-0.068;2022-12-28T07:27:35;98894.00;;;8.78;100.00
69842;BME280;57138;51.326;-0.068;2022-12-28T07:30:01;98906.72;;;8.76;100.00
69842;BME280;57138;51.326;-0.068;2022-12-28T07:32:26;98895.03;;;8.77;100.00
69842;BME280;57138;51.326;-0.068;2022-12-28T07:34:52;98901.41;;;8.76;100.00
69842;BME280;57138;51.326;-0.068;2022-12-28T07:37:17;98901.41;;;8.76;100.00
69842;BME280;57138;51.326;-0.068;2022-12-28T07:39:43;98891.16;;;8.73;100.00
69842;BME280;57138;51.326;-0.068;2022-12-28T07:42:08;98893.41;;;8.69;100.00
69842;BME280;57138;51.326;-0.068;2022-12-28T07:44:36;98895.25;;;8.69;100.00
69842;BME280;57138;51.326;-0.068;2022-12-28T07:47:01;98892.00;;;8.67;100.00
69842;BME280;57138;51.326;-0.068;2022-12-28T07:49:27;98880.50;;;8.59;100.00
69842;BME280;57138;51.326;-0.068;2022-12-28T07:51:52;98881.94;;;8.55;100.00
69842;BME280;57138;51.326;-0.068;2022-12-28T07:54:17;98894.84;;;8.58;100.00
69842;BME280;57138;51.326;-0.068;2022-12-28T07:56:43;98889.53;;;8.58;100.00
69842;BME280;57138;51.326;-0.068;2022-12-28T07:59:09;98882.59;;;8.57;100.00
69842;BME280;57138;51.326;-0.068;2022-12-28T08:01:37;98879.28;;;8.55;100.00
69842;BME280;57138;51.326;-0.068;2022-12-28T08:04:05;98879.09;;;8.50;100.00
69842;BME280;57138;51.326;-0.068;2022-12-28T08:06:34;98870.69;;;8.53;100.00
69842;BME280;57138;51.326;-0.068;2022-12-28T08:09:00;98884.00;;;8.53;100.00
69842;BME280;57138;51.326;-0.068;2022-12-28T08:11:28;98872.75;;;8.51;100.00
69842;BME280;57138;51.326;-0.068;2022-12-28T08:13:54;98874.16;;;8.54;100.00
69842;BME280;57138;51.326;-0.068;2022-12-28T08:16:21;98873.97;;;8.49;100.00
69842;BME280;57138;51.326;-0.068;2022-12-28T08:18:48;98849.78;;;8.50;100.00
69842;BME280;57138;51.326;-0.068;2022-12-28T08:21:17;98878.09;;;8.51;100.00
69842;BME280;57138;51.326;-0.068;2022-12-28T08:23:43;98869.88;;;8.46;100.00
69842;BME280;57138;51.326;-0.068;2022-12-28T08:26:26;98859.22;;;8.46;100.00
69842;BME280;57138;51.326;-0.068;2022-12-28T08:28:55;98855.16;;;8.43;100.00
69842;BME280;57138;51.326;-0.068;2022-12-28T08:31:26;98856.34;;;8.41;100.00
69842;BME280;57138;51.326;-0.068;2022-12-28T08:33:53;98856.34;;;8.41;100.00
69842;BME280;57138;51.326;-0.068;2022-12-28T08:36:19;98838.53;;;8.41;100.00
69842;BME280;57138;51.326;-0.068;2022-12-28T08:38:46;98840.16;;;8.42;100.00
69842;BME280;57138;51.326;-0.068;2022-12-28T08:41:14;98831.34;;;8.42;100.00
69842;BME280;57138;51.326;-0.068;2022-12-28T08:43:39;98832.38;;;8.41;100.00
69842;BME280;57138;51.326;-0.068;2022-12-28T08:46:07;98826.84;;;8.36;100.00
69842;BME280;57138;51.326;-0.068;2022-12-28T08:48:34;98823.59;;;8.34;100.00
69842;BME280;57138;51.326;-0.068;2022-12-28T08:51:06;98822.75;;;8.40;100.00
69842;BME280;57138;51.326;-0.068;2022-12-28T08:53:33;98837.09;;;8.39;100.00
69842;BME280;57138;51.326;-0.068;2022-12-28T08:56:13;98826.44;;;8.39;100.00
69842;BME280;57138;51.326;-0.068;2022-12-28T08:58:40;98819.06;;;8.34;100.00
69842;BME280;57138;51.326;-0.068;2022-12-28T09:01:11;98813.13;;;8.39;100.00
69842;BME280;57138;51.326;-0.068;2022-12-28T09:03:40;98808.81;;;8.38;100.00
69842;BME280;57138;51.326;-0.068;2022-12-28T09:06:08;98807.19;;;8.37;100.00
69842;BME280;57138;51.326;-0.068;2022-12-28T09:08:34;98797.34;;;8.37;100.00
69842;BME280;57138;51.326;-0.068;2022-12-28T09:11:01;98794.47;;;8.39;100.00
69842;BME280;57138;51.326;-0.068;2022-12-28T09:13:27;98791.59;;;8.40;100.00
69842;BME280;57138;51.326;-0.068;2022-12-28T09:15:57;98807.19;;;8.37;100.00
69842;BME280;57138;51.326;-0.068;2022-12-28T09:18:23;98781.16;;;8.39;100.00
69842;BME280;57138;51.326;-0.068;2022-12-28T09:20:49;98786.88;;;8.42;100.00
69842;BME280;57138;51.326;-0.068;2022-12-28T09:23:14;98766.19;;;8.44;100.00
69842;BME280;57138;51.326;-0.068;2022-12-28T09:25:39;98769.03;;;8.43;100.00
69842;BME280;57138;51.326;-0.068;2022-12-28T09:28:05;98774.38;;;8.43;100.00
69842;BME280;57138;51.326;-0.068;2022-12-28T09:30:30;98779.09;;;8.48;100.00
69842;BME280;57138;51.326;-0.068;2022-12-28T09:32:56;98773.78;;;8.48;100.00
69842;BME280;57138;51.326;-0.068;2022-12-28T09:35:41;98765.16;;;8.52;100.00
69842;BME280;57138;51.326;-0.068;2022-12-28T09:38:07;98766.63;;;8.48;100.00
69842;BME280;57138;51.326;-0.068;2022-12-28T09:40:36;98781.75;;;8.48;100.00
69842;BME280;57138;51.326;-0.068;2022-12-28T09:43:03;98764.38;;;8.45;100.00
69842;BME280;57138;51.326;-0.068;2022-12-28T09:45:30;98751.06;;;8.45;100.00
69842;BME280;57138;51.326;-0.068;2022-12-28T09:48:02;98760.06;;;8.44;100.00
69842;BME280;57138;51.326;-0.068;2022-12-28T09:50:30;98743.88;;;8.39;100.00
69842;BME280;57138;51.326;-0.068;2022-12-28T09:53:14;98755.34;;;8.46;100.00
69842;BME280;57138;51.326;-0.068;2022-12-28T09:58:21;98742.03;;;8.46;100.00
69842;BME280;57138;51.326;-0.068;2022-12-28T10:00:53;98742.03;;;8.39;100.00
69842;BME280;57138;51.326;-0.068;2022-12-28T10:05:49;98722.56;;;8.39;100.00
69842;BME280;57138;51.326;-0.068;2022-12-28T10:08:18;98730.56;;;8.45;100.00
69842;BME280;57138;51.326;-0.068;2022-12-28T10:10:44;98719.09;;;8.45;100.00
69842;BME280;57138;51.326;-0.068;2022-12-28T10:13:20;98717.63;;;8.49;100.00
69842;BME280;57138;51.326;-0.068;2022-12-28T10:15:46;98713.13;;;8.50;100.00
69842;BME280;57138;51.326;-0.068;2022-12-28T10:18:13;98700.63;;;8.50;100.00
69842;BME280;57138;51.326;-0.068;2022-12-28T10:20:41;98692.47;;;8.45;100.00
69842;BME280;57138;51.326;-0.068;2022-12-28T10:23:11;98707.38;;;8.46;100.00
69842;BME280;57138;51.326;-0.068;2022-12-28T10:25:39;98696.75;;;8.46;100.00
69842;BME280;57138;51.326;-0.068;2022-12-28T10:28:09;98685.88;;;8.41;100.00
69842;BME280;57138;51.326;-0.068;2022-12-28T10:30:46;98691.22;;;8.41;100.00
69842;BME280;57138;51.326;-0.068;2022-12-28T10:33:17;98679.97;;;8.39;100.00
69842;BME280;57138;51.326;-0.068;2022-12-28T10:35:51;98674.63;;;8.39;100.00
69842;BME280;57138;51.326;-0.068;2022-12-28T10:38:21;98679.97;;;8.39;100.00
69842;BME280;57138;51.326;-0.068;2022-12-28T10:40:58;98677.72;;;8.36;100.00
69842;BME280;57138;51.326;-0.068;2022-12-28T10:43:31;98633.13;;;8.24;100.00
69842;BME280;57138;51.326;-0.068;2022-12-28T10:45:59;98646.78;;;8.35;100.00
69842;BME280;57138;51.326;-0.068;2022-12-28T10:48:37;98645.97;;;8.34;100.00
69842;BME280;57138;51.326;-0.068;2022-12-28T10:51:13;98640.88;;;8.33;100.00
69842;BME280;57138;51.326;-0.068;2022-12-28T10:53:48;98642.94;;;8.31;100.00
69842;BME280;57138;51.326;-0.068;2022-12-28T10:56:23;98625.31;;;8.30;100.00
69842;BME280;57138;51.326;-0.068;2022-12-28T10:58:51;98616.31;;;8.31;100.00
69842;BME280;57138;51.326;-0.068;2022-12-28T11:01:26;98610.56;;;8.27;100.00
69842;BME280;57138;51.326;-0.068;2022-12-28T11:06:22;98618.75;;;8.25;100.00
69842;BME280;57138;51.326;-0.068;2022-12-28T11:11:37;98584.16;;;8.25;100.00
69842;BME280;57138;51.326;-0.068;2022-12-28T11:14:34;98572.47;;;8.26;100.00
69842;BME280;57138;51.326;-0.068;2022-12-28T11:17:17;98562.84;;;8.25;100.00
69842;BME280;57138;51.326;-0.068;2022-12-28T11:19:44;98560.19;;;8.25;100.00
69842;BME280;57138;51.326;-0.068;2022-12-28T11:22:20;98559.38;;;8.25;100.00
69842;BME280;57138;51.326;-0.068;2022-12-28T11:24:46;98540.97;;;8.23;100.00
69842;BME280;57138;51.326;-0.068;2022-12-28T11:27:15;98543.03;;;8.21;100.00
69842;BME280;57138;51.326;-0.068;2022-12-28T11:29:45;98533.19;;;8.22;100.00
69842;BME280;57138;51.326;-0.068;2022-12-28T11:32:19;98524.38;;;8.21;100.00
69842;BME280;57138;51.326;-0.068;2022-12-28T11:34:46;98501.88;;;8.17;100.00
69842;BME280;57138;51.326;-0.068;2022-12-28T11:37:13;98492.25;;;8.16;100.00
69842;BME280;57138;51.326;-0.068;2022-12-28T11:39:46;98496.34;;;8.19;100.00
69842;BME280;57138;51.326;-0.068;2022-12-28T11:45:05;98484.69;;;8.13;100.00
69842;BME280;57138;51.326;-0.068;2022-12-28T11:47:36;98476.72;;;8.13;100.00
69842;BME280;57138;51.326;-0.068;2022-12-28T11:52:59;98463.81;;;8.10;100.00
69842;BME280;57138;51.326;-0.068;2022-12-28T11:57:53;98437.44;;;8.08;100.00
69842;BME280;57138;51.326;-0.068;2022-12-28T12:07:59;98393.59;;;8.11;100.00
69842;BME280;57138;51.326;-0.068;2022-12-28T12:10:31;98393.59;;;8.11;100.00
69842;BME280;57138;51.326;-0.068;2022-12-28T12:12:58;98383.97;;;8.10;100.00
69842;BME280;57138;51.326;-0.068;2022-12-28T12:15:31;98375.41;;;8.08;100.00
69842;BME280;57138;51.326;-0.068;2022-12-28T12:18:02;98379.69;;;8.09;100.00
69842;BME280;57138;51.326;-0.068;2022-12-28T12:23:45;98361.66;;;8.11;100.00
69842;BME280;57138;51.326;-0.068;2022-12-28T12:28:49;98331.34;;;8.12;100.00
69842;BME280;57138;51.326;-0.068;2022-12-28T12:31:29;98330.31;;;8.13;100.00
69842;BME280;57138;51.326;-0.068;2022-12-28T12:34:01;98311.22;;;8.16;100.00
69842;BME280;57138;51.326;-0.068;2022-12-28T12:36:40;98304.88;;;8.17;100.00
69842;BME280;57138;51.326;-0.068;2022-12-28T12:41:50;98272.94;;;8.17;100.00
69842;BME280;57138;51.326;-0.068;2022-12-28T12:44:28;98277.81;;;8.20;100.00
69842;BME280;57138;51.326;-0.068;2022-12-28T12:55:14;98233.75;;;8.24;100.00
69842;BME280;57138;51.326;-0.068;2022-12-28T12:58:12;98242.31;;;8.26;100.00
69842;BME280;57138;51.326;-0.068;2022-12-28T13:03:36;98220.59;;;8.30;100.00
69842;BME280;57138;51.326;-0.068;2022-12-28T13:06:05;98214.81;;;8.33;100.00
69842;BME280;57138;51.326;-0.068;2022-12-28T13:08:44;98200.09;;;8.30;100.00
69842;BME280;57138;51.326;-0.068;2022-12-28T13:11:12;98181.84;;;8.34;100.00
69842;BME280;57138;51.326;-0.068;2022-12-28T13:13:40;98172.78;;;8.35;100.00
69842;BME280;57138;51.326;-0.068;2022-12-28T13:16:14;98160.75;;;8.32;100.00
69842;BME280;57138;51.326;-0.068;2022-12-28T13:18:52;98164.81;;;8.35;100.00
69842;BME280;57138;51.326;-0.068;2022-12-28T13:21:19;98146.38;;;8.33;100.00
69842;BME280;57138;51.326;-0.068;2022-12-28T13:23:45;98137.00;;;8.31;100.00
69842;BME280;57138;51.326;-0.068;2022-12-28T13:26:12;98145.13;;;8.36;100.00
69842;BME280;57138;51.326;-0.068;2022-12-28T13:29:07;98129.38;;;8.34;100.00
69842;BME280;57138;51.326;-0.068;2022-12-28T13:31:34;98129.16;;;8.36;100.00
69842;BME280;57138;51.326;-0.068;2022-12-28T13:34:05;98120.13;;;8.37;100.00
69842;BME280;57138;51.326;-0.068;2022-12-28T13:36:59;98112.16;;;8.37;100.00
69842;BME280;57138;51.326;-0.068;2022-12-28T13:39:30;98102.88;;;8.39;100.00
69842;BME280;57138;51.326;-0.068;2022-12-28T13:42:02;98104.28;;;8.42;100.00
69842;BME280;57138;51.326;-0.068;2022-12-28T13:44:41;98102.22;;;8.44;100.00
69842;BME280;57138;51.326;-0.068;2022-12-28T13:47:25;98097.09;;;8.42;100.00
69842;BME280;57138;51.326;-0.068;2022-12-28T13:50:17;98080.69;;;8.45;100.00
69842;BME280;57138;51.326;-0.068;2022-12-28T13:53:09;98083.13;;;8.47;100.00
69842;BME280;57138;51.326;-0.068;2022-12-28T13:55:45;98080.25;;;8.49;100.00
69842;BME280;57138;51.326;-0.068;2022-12-28T13:58:18;98070.84;;;8.46;100.00
69842;BME280;57138;51.326;-0.068;2022-12-28T14:00:47;98069.94;;;8.52;100.00
69842;BME280;57138;51.326;-0.068;2022-12-28T14:03:14;98074.25;;;8.53;100.00
69842;BME280;57138;51.326;-0.068;2022-12-28T14:05:42;98053.97;;;8.52;100.00
69842;BME280;57138;51.326;-0.068;2022-12-28T14:08:09;98052.69;;;8.55;100.00
69842;BME280;57138;51.326;-0.068;2022-12-28T14:10:35;98057.22;;;8.54;100.00
69842;BME280;57138;51.326;-0.068;2022-12-28T14:13:03;98051.28;;;8.52;100.00
69842;BME280;57138;51.326;-0.068;2022-12-28T14:15:29;98049.81;;;8.56;100.00
69842;BME280;57138;51.326;-0.068;2022-12-28T14:17:55;98040.56;;;8.59;100.00
69842;BME280;57138;51.326;-0.068;2022-12-28T14:20:20;98033.38;;;8.59;100.00
69842;BME280;57138;51.326;-0.068;2022-12-28T14:22:46;97996.53;;;8.56;100.00
69842;BME280;57138;51.326;-0.068;2022-12-28T14:25:13;98027.34;;;8.64;100.00
69842;BME280;57138;51.326;-0.068;2022-12-28T14:27:41;98023.88;;;8.63;100.00